createdAt,value
2022-10-05T00:01:29.799Z,18.05
2022-10-05T00:04:07.430Z,18.33
2022-10-05T00:06:35.751Z,18.26
2022-10-05T00:09:11.818Z,18.37
2022-10-05T00:11:42.032Z,18.13
2022-10-05T00:14:18.538Z,18.09
2022-10-05T00:16:47.275Z,18.46
2022-10-05T00:19:24.694Z,18.21
2022-10-05T00:21:53.042Z,18.30
2022-10-05T00:24:21.964Z,18.33
2022-10-05T00:26:57.057Z,17.97
2022-10-05T00:29:26.485Z,17.16
2022-10-05T00:31:54.852Z,18.03
2022-10-05T00:34:24.109Z,18.12
2022-10-05T00:36:52.390Z,17.74
2022-10-05T00:39:20.813Z,18.08
2022-10-05T00:42:10.997Z,18.00
2022-10-05T00:44:46.890Z,17.98
2022-10-05T00:47:38.086Z,17.95
2022-10-05T00:50:38.504Z,17.86
2022-10-05T00:53:18.233Z,17.57
2022-10-05T00:55:58.681Z,17.89
2022-10-05T00:58:46.164Z,17.66
2022-10-05T01:01:17.738Z,17.90
2022-10-05T01:03:59.247Z,17.97
2022-10-05T01:06:38.263Z,17.41
2022-10-05T01:09:19.424Z,17.81
2022-10-05T01:11:56.114Z,17.88
2022-10-05T01:14:33.522Z,17.62
2022-10-05T01:17:10.280Z,17.78
2022-10-05T01:20:04.163Z,17.83
2022-10-05T01:22:55.319Z,17.88
2022-10-05T01:25:31.579Z,17.93
2022-10-05T01:28:05.322Z,17.90
2022-10-05T01:30:44.120Z,17.83
2022-10-05T01:33:24.218Z,17.77
2022-10-05T01:36:01.115Z,17.54
2022-10-05T01:38:46.259Z,17.86
2022-10-05T01:41:26.974Z,17.80
2022-10-05T01:44:01.099Z,17.84
2022-10-05T01:46:37.365Z,17.85
2022-10-05T01:49:29.674Z,17.70
2022-10-05T01:52:17.812Z,17.53
2022-10-05T01:55:03.039Z,17.49
2022-10-05T01:57:45.045Z,17.80
2022-10-05T02:00:17.960Z,17.69
2022-10-05T02:02:52.022Z,17.52
2022-10-05T02:05:25.617Z,17.38
2022-10-05T02:07:59.736Z,17.61
2022-10-05T02:10:34.329Z,17.53
2022-10-05T02:13:10.598Z,17.41
2022-10-05T02:15:46.572Z,17.44
2022-10-05T02:18:22.173Z,17.43
2022-10-05T02:20:53.945Z,17.43
2022-10-05T02:23:28.055Z,17.19
2022-10-05T02:26:01.918Z,17.09
2022-10-05T02:28:37.320Z,17.15
2022-10-05T02:31:12.522Z,16.95
2022-10-05T02:33:40.998Z,17.30
2022-10-05T02:36:19.188Z,17.43
2022-10-05T02:39:06.897Z,17.31
2022-10-05T02:41:49.405Z,17.30
2022-10-05T02:44:29.689Z,17.20
2022-10-05T02:47:06.561Z,17.08
2022-10-05T02:49:46.248Z,16.89
2022-10-05T02:52:24.244Z,16.92
2022-10-05T02:55:03.353Z,17.17
2022-10-05T02:57:39.597Z,17.30
2022-10-05T03:00:14.164Z,17.30
2022-10-05T03:02:51.111Z,17.13
2022-10-05T03:05:26.326Z,16.48
2022-10-05T03:08:04.568Z,17.10
2022-10-05T03:10:41.737Z,17.14
2022-10-05T03:13:22.580Z,17.19
2022-10-05T03:16:07.036Z,17.19
2022-10-05T03:18:54.639Z,17.17
2022-10-05T03:21:45.040Z,17.01
2022-10-05T03:24:45.951Z,17.11
2022-10-05T03:27:29.739Z,17.12
2022-10-05T03:30:09.177Z,17.12
2022-10-05T03:32:52.159Z,16.93
2022-10-05T03:35:31.109Z,17.26
2022-10-05T03:38:10.500Z,17.27
2022-10-05T03:40:46.353Z,17.37
2022-10-05T03:43:51.494Z,17.26
2022-10-05T03:46:32.525Z,17.38
2022-10-05T03:49:10.627Z,17.30
2022-10-05T03:51:44.845Z,17.51
2022-10-05T03:54:21.810Z,17.62
2022-10-05T03:56:55.853Z,17.50
2022-10-05T03:59:33.644Z,17.30
2022-10-05T04:02:08.979Z,17.13
2022-10-05T04:04:43.873Z,17.21
2022-10-05T04:07:31.682Z,17.32
2022-10-05T04:10:04.326Z,17.40
2022-10-05T04:12:39.703Z,16.99
2022-10-05T04:15:20.535Z,17.32
2022-10-05T04:17:54.053Z,17.21
2022-10-05T04:20:28.108Z,17.25
2022-10-05T04:23:06.334Z,17.03
2022-10-05T04:25:45.636Z,17.06
2022-10-05T04:28:26.037Z,17.10
2022-10-05T04:30:56.780Z,16.71
2022-10-05T04:33:25.461Z,16.91
2022-10-05T04:36:23.235Z,17.24
2022-10-05T04:39:06.330Z,17.13
2022-10-05T04:41:54.512Z,17.47
2022-10-05T04:44:44.581Z,17.32
2022-10-05T04:47:35.327Z,17.18
2022-10-05T04:50:23.029Z,17.27
2022-10-05T04:53:14.747Z,17.43
2022-10-05T04:55:55.648Z,17.03
2022-10-05T04:58:42.638Z,17.23
2022-10-05T05:01:33.105Z,17.38
2022-10-05T05:04:29.048Z,17.24
2022-10-05T05:07:11.315Z,17.30
2022-10-05T05:10:34.613Z,17.33
2022-10-05T05:13:20.085Z,17.10
2022-10-05T05:15:59.715Z,16.93
2022-10-05T05:18:56.161Z,17.30
2022-10-05T05:21:42.900Z,17.15
2022-10-05T05:24:22.495Z,17.25
2022-10-05T05:27:20.379Z,17.09
2022-10-05T05:30:02.551Z,17.14
2022-10-05T05:32:45.273Z,16.94
2022-10-05T05:35:44.060Z,17.10
2022-10-05T05:38:30.116Z,17.35
2022-10-05T05:41:10.263Z,17.27
2022-10-05T05:43:58.922Z,17.52
2022-10-05T05:47:01.883Z,17.17
2022-10-05T05:49:37.484Z,17.26
2022-10-05T05:52:16.960Z,17.32
2022-10-05T05:54:54.643Z,17.37
2022-10-05T05:57:29.977Z,17.35
2022-10-05T06:00:09.290Z,17.17
2022-10-05T06:02:59.751Z,17.02
2022-10-05T06:05:35.337Z,17.07
2022-10-05T06:08:16.858Z,17.25
2022-10-05T06:10:54.145Z,17.14
2022-10-05T06:13:29.779Z,17.36
2022-10-05T06:16:05.813Z,17.30
2022-10-05T06:18:38.153Z,17.29
2022-10-05T06:21:16.884Z,17.40
2022-10-05T06:23:53.614Z,17.22
2022-10-05T06:26:47.477Z,17.40
2022-10-05T06:29:23.938Z,17.51
2022-10-05T06:32:07.314Z,17.19
2022-10-05T06:34:54.776Z,17.37
2022-10-05T06:37:38.162Z,17.40
2022-10-05T06:40:22.630Z,17.41
2022-10-05T06:43:16.686Z,17.41
2022-10-05T06:46:11.514Z,17.24
2022-10-05T06:49:21.050Z,17.22
2022-10-05T06:52:20.402Z,17.47
2022-10-05T06:55:05.602Z,17.65
2022-10-05T06:57:57.748Z,17.58
2022-10-05T07:00:34.470Z,17.49
2022-10-05T07:03:15.969Z,17.47
2022-10-05T07:06:02.446Z,17.33
2022-10-05T07:09:05.117Z,17.28
2022-10-05T07:11:58.406Z,17.32
2022-10-05T07:14:56.269Z,17.47
2022-10-05T07:17:52.302Z,17.67
2022-10-05T07:20:31.356Z,17.53
2022-10-05T07:23:27.918Z,17.60
2022-10-05T07:26:15.888Z,17.46
2022-10-05T07:28:50.264Z,17.57
2022-10-05T07:31:32.234Z,17.49
2022-10-05T07:34:07.979Z,17.62
2022-10-05T07:37:00.081Z,17.36
2022-10-05T07:39:59.164Z,17.46
2022-10-05T07:42:52.724Z,17.58
2022-10-05T07:45:32.985Z,17.52
2022-10-05T07:48:13.956Z,17.56
2022-10-05T07:50:56.636Z,17.84
2022-10-05T07:53:31.307Z,17.66
2022-10-05T07:56:05.877Z,17.77
2022-10-05T07:58:44.234Z,17.68
2022-10-05T08:01:19.283Z,17.78
2022-10-05T08:03:56.812Z,17.50
2022-10-05T08:06:45.806Z,17.73
2022-10-05T08:09:34.783Z,17.63
2022-10-05T08:12:24.237Z,17.73
2022-10-05T08:15:01.491Z,17.73
2022-10-05T08:17:45.255Z,17.82
2022-10-05T08:20:40.391Z,17.84
2022-10-05T08:23:22.407Z,18.08
2022-10-05T08:26:04.830Z,18.00
2022-10-05T08:28:38.379Z,18.07
2022-10-05T08:31:20.205Z,18.27
2022-10-05T08:33:59.738Z,18.17
2022-10-05T08:36:51.547Z,18.42
2022-10-05T08:39:25.597Z,18.43
2022-10-05T08:42:28.363Z,18.44
2022-10-05T08:46:02.496Z,18.35
2022-10-05T08:49:28.352Z,18.37
2022-10-05T08:52:25.884Z,18.38
2022-10-05T08:55:34.872Z,18.32
2022-10-05T08:58:37.845Z,18.16
2022-10-05T09:01:19.624Z,18.59
2022-10-05T09:04:30.088Z,18.85
2022-10-05T09:07:28.548Z,19.17
2022-10-05T09:10:45.545Z,19.21
2022-10-05T09:13:41.996Z,19.34
2022-10-05T09:16:49.313Z,19.43
2022-10-05T09:20:07.622Z,19.60
2022-10-05T09:22:46.184Z,19.50
2022-10-05T09:25:24.739Z,19.34
2022-10-05T09:28:00.186Z,19.42
2022-10-05T09:30:54.422Z,19.99
2022-10-05T09:34:14.012Z,20.40
2022-10-05T09:37:44.167Z,20.22
2022-10-05T09:41:23.304Z,20.38
2022-10-05T09:44:36.311Z,20.35
2022-10-05T09:47:41.403Z,20.45
2022-10-05T09:50:41.859Z,20.39
2022-10-05T09:53:41.370Z,20.37
2022-10-05T09:56:35.304Z,20.49
2022-10-05T09:59:55.683Z,20.49
2022-10-05T10:02:46.180Z,20.39
2022-10-05T10:05:44.006Z,20.73
2022-10-05T10:08:30.652Z,20.52
2022-10-05T10:11:25.008Z,20.63
2022-10-05T10:14:25.108Z,20.48
2022-10-05T10:17:47.648Z,20.15
2022-10-05T10:20:32.114Z,20.38
2022-10-05T10:23:20.874Z,20.23
2022-10-05T10:26:20.642Z,20.21
2022-10-05T10:29:43.465Z,20.01
2022-10-05T10:32:54.780Z,20.24
2022-10-05T10:35:33.745Z,20.37
2022-10-05T10:38:40.609Z,20.60
2022-10-05T10:42:07.112Z,20.69
2022-10-05T10:45:15.353Z,20.83
2022-10-05T10:47:54.568Z,20.28
2022-10-05T10:51:07.299Z,20.43
2022-10-05T10:54:47.139Z,20.45
2022-10-05T10:57:23.704Z,20.29
2022-10-05T11:00:25.390Z,20.42
2022-10-05T11:03:30.989Z,20.32
2022-10-05T11:06:34.864Z,20.57
2022-10-05T11:09:39.812Z,20.67
2022-10-05T11:12:51.775Z,20.84
2022-10-05T11:16:19.563Z,20.88
2022-10-05T11:20:03.207Z,20.76
2022-10-05T11:22:53.051Z,20.82
2022-10-05T11:25:55.868Z,21.04
2022-10-05T11:29:11.687Z,20.60
2022-10-05T11:32:08.806Z,20.62
2022-10-05T11:35:00.887Z,20.91
2022-10-05T11:38:00.007Z,21.02
2022-10-05T11:41:02.222Z,21.31
2022-10-05T11:44:06.143Z,21.23
2022-10-05T11:46:44.585Z,21.49
2022-10-05T11:49:37.234Z,21.55
2022-10-05T11:52:14.044Z,21.68
2022-10-05T11:55:16.024Z,21.75
2022-10-05T11:57:51.446Z,21.46
2022-10-05T12:00:22.184Z,21.27
2022-10-05T12:03:48.961Z,21.10
2022-10-05T12:06:52.411Z,21.12
2022-10-05T12:10:03.221Z,21.38
2022-10-05T12:12:40.077Z,21.24
2022-10-05T12:15:23.443Z,21.42
2022-10-05T12:18:00.363Z,21.25
2022-10-05T12:20:40.679Z,21.30
2022-10-05T12:23:18.879Z,21.43
2022-10-05T12:25:54.878Z,20.82
2022-10-05T12:28:34.117Z,21.27
2022-10-05T12:31:21.403Z,21.15
2022-10-05T12:34:03.480Z,20.73
2022-10-05T12:37:03.054Z,20.97
2022-10-05T12:39:44.330Z,21.24
2022-10-05T12:42:29.037Z,21.16
2022-10-05T12:45:23.069Z,21.32
2022-10-05T12:48:26.590Z,21.19
2022-10-05T12:51:02.012Z,21.48
2022-10-05T12:53:49.288Z,21.66
2022-10-05T12:56:31.981Z,21.89
2022-10-05T12:59:14.283Z,21.95
2022-10-05T13:01:50.428Z,21.72
2022-10-05T13:04:34.066Z,21.78
2022-10-05T13:10:00.635Z,21.95
2022-10-05T13:12:39.775Z,21.96
2022-10-05T13:15:20.089Z,21.75
2022-10-05T13:18:00.655Z,21.74
2022-10-05T13:20:36.745Z,21.56
2022-10-05T13:23:14.621Z,21.69
2022-10-05T13:25:51.711Z,21.91
2022-10-05T13:28:27.898Z,22.04
2022-10-05T13:31:07.512Z,21.87
2022-10-05T13:33:59.254Z,21.67
2022-10-05T13:36:40.056Z,21.34
2022-10-05T13:39:25.658Z,21.48
2022-10-05T13:42:06.009Z,21.08
2022-10-05T13:44:43.826Z,21.06
2022-10-05T13:47:21.355Z,21.44
2022-10-05T13:49:55.546Z,21.47
2022-10-05T13:52:48.501Z,21.43
2022-10-05T13:55:35.001Z,21.38
2022-10-05T13:58:13.985Z,21.06
2022-10-05T14:00:51.183Z,21.04
2022-10-05T14:03:30.752Z,21.30
2022-10-05T14:06:01.470Z,21.22
2022-10-05T14:08:33.915Z,21.08
2022-10-05T14:11:22.889Z,21.39
2022-10-05T14:13:53.645Z,20.89
2022-10-05T14:16:25.316Z,21.34
2022-10-05T14:18:59.018Z,21.31
2022-10-05T14:21:31.603Z,21.21
2022-10-05T14:24:42.279Z,21.19
2022-10-05T14:27:23.228Z,20.83
2022-10-05T14:30:00.915Z,20.86
2022-10-05T14:32:35.338Z,20.71
2022-10-05T14:35:17.639Z,20.67
2022-10-05T14:37:52.234Z,20.84
2022-10-05T14:40:31.751Z,20.66
2022-10-05T14:43:18.120Z,20.71
2022-10-05T14:46:02.684Z,20.28
2022-10-05T14:48:42.423Z,20.11
2022-10-05T14:51:25.356Z,20.11
2022-10-05T14:53:59.905Z,19.94
2022-10-05T14:56:46.535Z,20.06
2022-10-05T14:59:50.392Z,19.64
2022-10-05T15:03:18.064Z,19.97
2022-10-05T15:05:51.598Z,20.27
2022-10-05T15:08:42.020Z,20.11
2022-10-05T15:11:18.708Z,20.05
2022-10-05T15:13:48.640Z,20.09
2022-10-05T15:16:24.920Z,19.96
2022-10-05T15:19:00.955Z,19.86
2022-10-05T15:21:45.966Z,20.01
2022-10-05T15:24:20.915Z,19.89
2022-10-05T15:26:54.473Z,19.69
2022-10-05T15:29:54.918Z,19.74
2022-10-05T15:32:41.683Z,19.61
2022-10-05T15:35:50.113Z,19.45
2022-10-05T15:38:25.711Z,19.55
2022-10-05T15:41:14.849Z,19.95
2022-10-05T15:43:54.597Z,19.47
2022-10-05T15:46:34.387Z,19.50
2022-10-05T15:49:22.957Z,19.47
2022-10-05T15:52:05.557Z,19.64
2022-10-05T15:55:26.270Z,19.61
2022-10-05T15:58:31.386Z,19.43
2022-10-05T16:01:10.414Z,19.43
2022-10-05T16:03:52.170Z,19.33
2022-10-05T16:06:56.815Z,19.39
2022-10-05T16:09:56.214Z,19.54
2022-10-05T16:12:44.614Z,19.58
2022-10-05T16:15:29.469Z,19.44
2022-10-05T16:18:39.215Z,19.24
2022-10-05T16:21:20.252Z,19.12
2022-10-05T16:24:05.853Z,19.28
2022-10-05T16:26:55.004Z,19.29
2022-10-05T16:29:38.642Z,19.42
2022-10-05T16:32:13.871Z,19.19
2022-10-05T16:35:03.508Z,19.27
2022-10-05T16:37:43.407Z,19.09
2022-10-05T16:40:28.541Z,19.22
2022-10-05T16:43:12.043Z,19.09
2022-10-05T16:45:59.721Z,18.81
2022-10-05T16:48:34.946Z,18.92
2022-10-05T16:51:29.372Z,19.05
2022-10-05T16:54:11.721Z,19.17
2022-10-05T16:56:45.891Z,19.00
2022-10-05T17:00:03.705Z,18.86
2022-10-05T17:02:56.946Z,19.09
2022-10-05T17:05:59.452Z,18.95
2022-10-05T17:09:12.590Z,18.87
2022-10-05T17:12:02.574Z,19.07
2022-10-05T17:14:48.561Z,19.04
2022-10-05T17:17:34.131Z,18.85
2022-10-05T17:20:49.244Z,19.06
2022-10-05T17:23:54.991Z,19.04
2022-10-05T17:26:59.404Z,19.14
2022-10-05T17:29:42.830Z,19.16
2022-10-05T17:32:33.546Z,19.09
2022-10-05T17:35:20.343Z,19.04
2022-10-05T17:38:17.917Z,18.79
2022-10-05T17:41:19.764Z,19.03
2022-10-05T17:44:26.240Z,19.14
2022-10-05T17:46:59.606Z,19.09
2022-10-05T17:50:14.067Z,19.18
2022-10-05T17:53:02.449Z,19.08
2022-10-05T17:55:46.139Z,19.06
2022-10-05T17:59:04.536Z,19.16
2022-10-05T18:01:36.640Z,19.13
2022-10-05T18:04:42.403Z,19.21
2022-10-05T18:07:23.792Z,19.00
2022-10-05T18:10:24.838Z,19.20
2022-10-05T18:13:34.681Z,19.22
2022-10-05T18:16:03.296Z,19.07
2022-10-05T18:18:59.997Z,19.27
2022-10-05T18:21:59.792Z,19.29
2022-10-05T18:25:03.539Z,19.27
2022-10-05T18:28:19.731Z,19.32
2022-10-05T18:31:18.645Z,19.42
2022-10-05T18:34:04.361Z,19.31
2022-10-05T18:36:54.589Z,19.07
2022-10-05T18:39:46.028Z,19.00
2022-10-05T18:42:23.778Z,19.08
2022-10-05T18:44:58.593Z,19.20
2022-10-05T18:47:37.276Z,19.09
2022-10-05T18:50:23.892Z,19.35
2022-10-05T18:53:21.039Z,19.28
2022-10-05T18:55:58.876Z,19.41
2022-10-05T18:58:42.168Z,19.37
2022-10-05T19:01:52.473Z,19.38
2022-10-05T19:04:35.502Z,19.48
2022-10-05T19:07:20.465Z,19.29
2022-10-05T19:10:05.435Z,19.28
2022-10-05T19:12:49.665Z,19.23
2022-10-05T19:15:28.260Z,18.96
2022-10-05T19:18:47.058Z,19.31
2022-10-05T19:21:29.502Z,19.12
2022-10-05T19:24:22.066Z,18.96
2022-10-05T19:27:06.894Z,19.00
2022-10-05T19:30:01.756Z,18.68
2022-10-05T19:32:45.977Z,18.87
2022-10-05T19:35:26.666Z,18.84
2022-10-05T19:38:16.675Z,18.65
2022-10-05T19:40:56.453Z,18.43
2022-10-05T19:43:52.612Z,18.53
2022-10-05T19:46:38.686Z,18.53
2022-10-05T19:49:10.928Z,18.23
2022-10-05T19:51:50.828Z,18.44
2022-10-05T19:54:28.626Z,18.42
2022-10-05T19:56:59.845Z,18.42
2022-10-05T19:59:31.420Z,18.27
2022-10-05T20:02:00.522Z,18.23
2022-10-05T20:04:38.296Z,18.41
2022-10-05T20:07:06.714Z,18.47
2022-10-05T20:09:53.902Z,18.38
2022-10-05T20:12:23.989Z,18.22
2022-10-05T20:15:35.743Z,18.59
2022-10-05T20:19:06.183Z,18.70
2022-10-05T20:21:48.322Z,18.49
2022-10-05T20:24:19.680Z,18.45
2022-10-05T20:27:06.125Z,18.68
2022-10-05T20:29:38.187Z,18.25
2022-10-05T20:32:09.920Z,18.42
2022-10-05T20:34:41.377Z,18.30
2022-10-05T20:37:11.471Z,18.33
2022-10-05T20:39:40.417Z,18.59
2022-10-05T20:42:14.111Z,18.44
2022-10-05T20:44:42.511Z,17.82
2022-10-05T20:47:11.453Z,18.47
2022-10-05T20:49:41.394Z,18.11
2022-10-05T20:52:12.285Z,18.47
2022-10-05T20:54:40.903Z,18.54
2022-10-05T20:57:11.265Z,18.25
2022-10-05T20:59:39.792Z,18.27
2022-10-05T21:02:08.352Z,18.21
2022-10-05T21:04:43.086Z,18.13
2022-10-05T21:07:11.506Z,18.27
2022-10-05T21:09:41.166Z,17.89
2022-10-05T21:12:11.602Z,17.88
2022-10-05T21:14:40.782Z,18.01
2022-10-05T21:17:10.473Z,17.70
2022-10-05T21:19:40.354Z,18.14
2022-10-05T21:22:10.837Z,17.23
2022-10-05T21:24:41.252Z,17.75
2022-10-05T21:27:11.025Z,17.91
2022-10-05T21:29:41.201Z,18.21
2022-10-05T21:32:11.772Z,18.13
2022-10-05T21:34:40.724Z,18.04
2022-10-05T21:37:09.701Z,18.04
2022-10-05T21:39:37.970Z,18.13
2022-10-05T21:42:06.594Z,17.98
2022-10-05T21:44:36.675Z,17.78
2022-10-05T21:47:07.021Z,17.71
2022-10-05T21:49:37.359Z,17.48
2022-10-05T21:52:07.048Z,17.36
2022-10-05T21:54:38.967Z,17.04
2022-10-05T21:57:07.792Z,17.08
2022-10-05T21:59:37.537Z,16.81
2022-10-05T22:02:07.309Z,16.64
2022-10-05T22:04:35.722Z,16.79
2022-10-05T22:07:18.118Z,16.64
2022-10-05T22:09:48.464Z,16.50
2022-10-05T22:12:17.811Z,16.66
2022-10-05T22:14:47.450Z,16.74
2022-10-05T22:17:24.881Z,16.22
2022-10-05T22:19:53.251Z,16.61
2022-10-05T22:22:22.226Z,16.54
2022-10-05T22:24:51.000Z,16.54
2022-10-05T22:27:20.286Z,16.50
2022-10-05T22:29:51.390Z,16.14
2022-10-05T22:32:20.060Z,16.61
2022-10-05T22:34:48.431Z,16.49
2022-10-05T22:37:16.734Z,16.59
2022-10-05T22:39:45.434Z,16.61
2022-10-05T22:42:13.810Z,16.36
2022-10-05T22:44:42.281Z,16.16
2022-10-05T22:47:15.073Z,16.32
2022-10-05T22:49:44.579Z,16.27
2022-10-05T22:52:12.921Z,16.18
2022-10-05T22:54:41.261Z,15.98
2022-10-05T22:57:09.784Z,16.11
2022-10-05T22:59:38.441Z,16.03
2022-10-05T23:02:07.013Z,16.08
2022-10-05T23:04:36.786Z,16.04
2022-10-05T23:07:05.835Z,15.75
2022-10-05T23:09:36.215Z,15.78
2022-10-05T23:12:04.742Z,15.90
2022-10-05T23:14:33.286Z,15.06
2022-10-05T23:17:01.609Z,15.81
2022-10-05T23:19:30.004Z,15.84
2022-10-05T23:22:00.213Z,15.78
2022-10-05T23:24:28.602Z,15.49
2022-10-05T23:26:57.202Z,15.92
2022-10-05T23:29:28.710Z,15.92
2022-10-05T23:31:57.610Z,16.15
2022-10-05T23:34:27.346Z,15.69
2022-10-05T23:36:55.777Z,16.05
2022-10-05T23:39:27.671Z,16.06
2022-10-05T23:41:56.230Z,16.05
2022-10-05T23:44:24.752Z,15.95
2022-10-05T23:46:53.301Z,16.11
2022-10-05T23:49:21.818Z,16.07
2022-10-05T23:51:52.753Z,16.00
2022-10-05T23:54:21.011Z,15.92
2022-10-05T23:56:50.694Z,15.79
2022-10-05T23:59:18.945Z,15.34
